Impacts TAF Board INFO
FOR SITUATIONAL AWARENESS. NOT TO BE USED FOR FLIGHT PLANNING PURPOSES.
IDs:

KCLE - Cleveland/Hopkins In, OH, US

Issued at 1133 UTC 18 Jan 2018
Updated at 1156 UTC 18 Jan 2018
Potential Impact None Slight Moderate High
Time1151Z 18/12Z 18/13Z 18/14Z 18/15Z 18/16Z 18/17Z 18/18Z 18/19Z 18/20Z 18/21Z 18/22Z 18/23Z 19/00Z>>
Type OBS PRVL PRVL PRVL PRVL PRVL PRVL PRVL PRVL PRVL PRVL PRVL PRVL PRVL
VIS 10 >6 >6 >6 >6 >6 >6 >6 >6 >6 >6 >6 >6 >6
CIG -- -- -- -- -- -- -- -- -- -- -- -- -- --
Cover CLR SKC SKC SKC SKC SKC SKC SKC SKC SKC SKC SKC SKC SKC
FltCat VFR VFR VFR VFR VFR VFR VFR VFR VFR VFR VFR VFR VFR VFR
WX -- -- -- -- -- -- -- -- -- -- -- -- -- --
WDir 220 230 230 230 230 230 230 230 230 230 230 230 230 230
WSpd 10 14 14 14 14 14 14 14 14 14 14 14 14 14
WGst -- 22 22 22 22 22 22 22 22 22 22 22 22 22

Raw TAF
KCLE 181133Z 1812/1918 23014G22KT P6SM SKC
  FM190300 22012KT P6SM SCT200 WS020/26045KT
  FM191100 21012KT P6SM BKN200


Raw METAR
KCLE 181151Z 22010KT 10SM CLR M09/M15 A3019 RMK AO2 SLP237 4/003 T10941150 11078 21094 56001
KCLE 181051Z 24014KT 10SM FEW250 M09/M15 A3019 RMK AO2 SLP236 T10891150
KCLE 180951Z 23014G22KT 10SM FEW250 M08/M15 A3017 RMK AO2 SLP230 T10831150
KCLE 180851Z 21013KT 10SM FEW250 M08/M15 A3019 RMK AO2 SLP237 T10831150 56017

METAR Board
Radar Display
Forecast Discussion

FOR SITUATIONAL AWARENESS. NOT TO BE USED FOR FLIGHT PLANNING PURPOSES.